createdAt,value
2023-03-05T07:52:02.033Z,2176.00
2023-03-05T07:53:02.144Z,1672.00
2023-03-05T07:54:02.353Z,1584.00
2023-03-05T07:55:02.529Z,1704.00
2023-03-05T07:56:02.598Z,1900.00
2023-03-05T07:57:02.753Z,2104.00
2023-03-05T07:58:02.935Z,2056.00
2023-03-05T07:59:03.042Z,1512.00
2023-03-05T08:00:03.230Z,1468.00
2023-03-05T08:01:03.352Z,1716.00
2023-03-05T08:02:03.500Z,1576.00
2023-03-05T08:03:03.691Z,1816.00
2023-03-05T08:04:03.874Z,1984.00
2023-03-05T08:05:03.925Z,2212.00
2023-03-05T08:06:04.061Z,2068.00
2023-03-05T08:07:04.279Z,2252.00
2023-03-05T08:08:04.351Z,2184.00
2023-03-05T08:09:04.544Z,2208.00
2023-03-05T08:10:04.640Z,2752.00
2023-03-05T08:11:04.767Z,2960.00
2023-03-05T08:12:04.869Z,2596.00
2023-03-05T08:13:05.019Z,2148.00
2023-03-05T08:14:05.307Z,2128.00
2023-03-05T08:15:05.347Z,2276.00
2023-03-05T08:16:05.534Z,2120.00
2023-03-05T08:17:05.584Z,2080.00
2023-03-05T08:18:05.731Z,2248.00
2023-03-05T08:19:05.960Z,2388.00
2023-03-05T08:20:06.076Z,2636.00
2023-03-05T08:21:06.242Z,2664.00
2023-03-05T08:22:06.390Z,2916.00
2023-03-05T08:23:06.558Z,3080.00
2023-03-05T08:24:06.715Z,2932.00
2023-03-05T08:25:06.825Z,2540.00
2023-03-05T08:26:06.975Z,2420.00
2023-03-05T08:27:07.144Z,2256.00
2023-03-05T08:28:07.344Z,1964.00
2023-03-05T08:29:08.188Z,1876.00
2023-03-05T08:30:07.642Z,1908.00
2023-03-05T08:31:07.745Z,1992.00
2023-03-05T08:32:07.889Z,2144.00
2023-03-05T08:33:07.960Z,2024.00
2023-03-05T08:34:08.205Z,2008.00
2023-03-05T08:35:08.257Z,2024.00
2023-03-05T08:36:08.376Z,1984.00
2023-03-05T08:37:08.560Z,2060.00
2023-03-05T08:38:08.725Z,2096.00
2023-03-05T08:39:08.863Z,2224.00
2023-03-05T08:40:09.008Z,2540.00
2023-03-05T08:41:09.146Z,2808.00
2023-03-05T08:42:09.260Z,2952.00
2023-03-05T08:43:09.408Z,3044.00
2023-03-05T08:44:09.563Z,3432.00
2023-03-05T08:45:09.687Z,3816.00
2023-03-05T08:46:09.929Z,4312.00
2023-03-05T08:47:09.984Z,4068.00
2023-03-05T08:48:10.114Z,3744.00
2023-03-05T08:49:10.303Z,3504.00
2023-03-05T08:50:10.455Z,3244.00
2023-03-05T08:51:10.599Z,3660.00
2023-03-05T08:52:10.764Z,3944.00
2023-03-05T08:53:10.767Z,4524.00
2023-03-05T08:54:10.910Z,4596.00
2023-03-05T08:55:10.987Z,4468.00
2023-03-05T08:56:11.195Z,4408.00
2023-03-05T08:57:11.312Z,4932.00
2023-03-05T08:58:11.426Z,5668.00
2023-03-05T08:59:13.618Z,6060.00
2023-03-05T09:00:11.694Z,6412.00
2023-03-05T09:01:11.867Z,7272.00
2023-03-05T09:02:12.019Z,7744.00
2023-03-05T09:03:12.113Z,8068.00
2023-03-05T09:04:12.272Z,7876.00
2023-03-05T09:05:12.387Z,7656.00
2023-03-05T09:06:12.614Z,7408.00
2023-03-05T09:07:12.701Z,7296.00
2023-03-05T09:08:12.815Z,7208.00
2023-03-05T09:09:12.922Z,7612.00
2023-03-05T09:10:13.080Z,7648.00
2023-03-05T09:11:13.161Z,7688.00
2023-03-05T09:12:13.325Z,7632.00
2023-03-05T09:13:13.405Z,6456.00
2023-03-05T09:14:13.566Z,5732.00
2023-03-05T09:15:13.655Z,5900.00
2023-03-05T09:16:13.846Z,6656.00
2023-03-05T09:17:13.971Z,6116.00
2023-03-05T09:18:14.141Z,5876.00
2023-03-05T09:19:14.234Z,5616.00
2023-03-05T09:20:14.343Z,5816.00
2023-03-05T09:21:14.452Z,5676.00
2023-03-05T09:22:14.639Z,5604.00
2023-03-05T09:23:14.815Z,6164.00
2023-03-05T09:24:14.871Z,6956.00
2023-03-05T09:25:15.018Z,7360.00
2023-03-05T09:26:15.229Z,7416.00
2023-03-05T09:27:15.388Z,7472.00
2023-03-05T09:28:15.521Z,7988.00
2023-03-05T09:29:15.626Z,8864.00
2023-03-05T09:30:15.759Z,9284.00
2023-03-05T09:31:15.922Z,9548.00
2023-03-05T09:32:16.093Z,8352.00
2023-03-05T09:33:16.199Z,8180.00
2023-03-05T09:34:16.311Z,8032.00
2023-03-05T09:35:16.417Z,8152.00
2023-03-05T09:36:16.549Z,9004.00
2023-03-05T09:37:16.665Z,11192.00
2023-03-05T09:38:16.810Z,7628.00
2023-03-05T09:39:16.926Z,10920.00
2023-03-05T09:40:17.015Z,6712.00
2023-03-05T09:41:17.098Z,7016.00
2023-03-05T09:42:17.215Z,6804.00
2023-03-05T09:43:17.418Z,7944.00
2023-03-05T09:44:17.529Z,9672.00
2023-03-05T09:45:17.629Z,8860.00
2023-03-05T09:46:17.882Z,8444.00
2023-03-05T09:47:17.940Z,8512.00
2023-03-05T09:48:18.144Z,9304.00
2023-03-05T09:49:18.251Z,10436.00
2023-03-05T09:50:18.405Z,11936.00
2023-03-05T09:51:18.477Z,13372.00
2023-03-05T09:52:18.656Z,14572.00
2023-03-05T09:53:18.832Z,12032.00
2023-03-05T09:54:18.898Z,11032.00
2023-03-05T09:55:18.989Z,12208.00
2023-03-05T09:56:19.215Z,28544.00
2023-03-05T09:57:19.320Z,34912.00
2023-03-05T09:58:19.539Z,27168.00
2023-03-05T09:59:19.692Z,30976.00
2023-03-05T10:00:19.758Z,19424.00
2023-03-05T10:01:19.874Z,20160.00
2023-03-05T10:02:20.029Z,19936.00
2023-03-05T10:03:20.317Z,7344.00
2023-03-05T10:04:20.480Z,6768.00
2023-03-05T10:05:20.565Z,7228.00
2023-03-05T10:06:20.704Z,7884.00
2023-03-05T10:07:20.866Z,8424.00
2023-03-05T10:08:21.060Z,8916.00
2023-03-05T10:09:21.175Z,9156.00
2023-03-05T10:10:21.295Z,8856.00
2023-03-05T10:11:21.396Z,8636.00
2023-03-05T10:12:21.564Z,8156.00
2023-03-05T10:13:21.728Z,7440.00
2023-03-05T10:14:21.952Z,7048.00
2023-03-05T10:15:22.008Z,6968.00
2023-03-05T10:16:22.204Z,7152.00
2023-03-05T10:17:22.308Z,7600.00
2023-03-05T10:18:22.448Z,8432.00
2023-03-05T10:19:22.643Z,9656.00
2023-03-05T10:20:22.743Z,10972.00
2023-03-05T10:21:23.211Z,11996.00
2023-03-05T10:22:23.100Z,13008.00
2023-03-05T10:23:23.235Z,14112.00
2023-03-05T10:24:23.347Z,14460.00
2023-03-05T10:25:23.524Z,13800.00
2023-03-05T10:26:23.618Z,11412.00
2023-03-05T10:27:23.743Z,8464.00
2023-03-05T10:28:23.925Z,7296.00
2023-03-05T10:29:24.005Z,6860.00
2023-03-05T10:30:24.182Z,5912.00
2023-03-05T10:31:24.272Z,5144.00
2023-03-05T10:32:24.509Z,4952.00
2023-03-05T10:33:24.597Z,5352.00
2023-03-05T10:34:24.807Z,5864.00
2023-03-05T10:35:24.922Z,6984.00
2023-03-05T10:36:25.056Z,8976.00
2023-03-05T10:37:25.107Z,10108.00
2023-03-05T10:38:25.319Z,11796.00
2023-03-05T10:39:25.396Z,15300.00
2023-03-05T10:40:25.537Z,15008.00
2023-03-05T10:41:25.629Z,20192.00
2023-03-05T10:42:25.810Z,31872.00
2023-03-05T10:43:26.034Z,29504.00
2023-03-05T10:44:26.147Z,46176.00
2023-03-05T10:45:26.237Z,44352.00
2023-03-05T10:46:26.348Z,41184.00
2023-03-05T10:47:26.439Z,42656.00
2023-03-05T10:48:26.643Z,37472.00
2023-03-05T10:49:26.737Z,21536.00
2023-03-05T10:50:26.885Z,35520.00
2023-03-05T10:51:26.964Z,18848.00
2023-03-05T10:52:27.126Z,11376.00
2023-03-05T10:53:27.284Z,9548.00
2023-03-05T10:54:27.462Z,9064.00
2023-03-05T10:55:27.636Z,9548.00
2023-03-05T10:56:27.777Z,10460.00
2023-03-05T10:57:27.872Z,11520.00
2023-03-05T10:58:28.028Z,12228.00
2023-03-05T10:59:28.129Z,12948.00
2023-03-05T11:00:28.331Z,14952.00
2023-03-05T11:01:28.550Z,15904.00
2023-03-05T11:02:28.671Z,20288.00
2023-03-05T11:03:28.732Z,28896.00
2023-03-05T11:04:28.893Z,32000.00
2023-03-05T11:05:28.970Z,32608.00
2023-03-05T11:06:29.125Z,33184.00
2023-03-05T11:07:29.216Z,33408.00
2023-03-05T11:08:29.561Z,33504.00
2023-03-05T11:09:29.506Z,18880.00
2023-03-05T11:10:29.692Z,17856.00
2023-03-05T11:11:29.848Z,19584.00
2023-03-05T11:12:29.976Z,23040.00
2023-03-05T11:13:30.064Z,44064.00
2023-03-05T11:14:30.160Z,41408.00
2023-03-05T11:15:30.279Z,30208.00
2023-03-05T11:16:30.460Z,21568.00
2023-03-05T11:17:30.582Z,42208.00
2023-03-05T11:18:30.717Z,33248.00
2023-03-05T11:19:30.803Z,17376.00
2023-03-05T11:20:30.899Z,18112.00
2023-03-05T11:21:31.070Z,32736.00
2023-03-05T11:22:31.268Z,34016.00
2023-03-05T11:23:31.426Z,21824.00
2023-03-05T11:24:31.527Z,17280.00
2023-03-05T11:25:31.676Z,18208.00
2023-03-05T11:26:31.796Z,22688.00
2023-03-05T11:27:31.956Z,39040.00
2023-03-05T11:28:33.705Z,21632.00
2023-03-05T11:29:32.192Z,20864.00
2023-03-05T11:30:32.358Z,37024.00
2023-03-05T11:31:32.420Z,23776.00
2023-03-05T11:32:32.661Z,21088.00
2023-03-05T11:33:32.802Z,32672.00
2023-03-05T11:34:32.920Z,34080.00
2023-03-05T11:35:33.064Z,42752.00
2023-03-05T11:36:33.152Z,45856.00
2023-03-05T11:37:33.304Z,46720.00
2023-03-05T11:38:35.056Z,45888.00
2023-03-05T11:39:33.568Z,43808.00
2023-03-05T11:40:33.682Z,43744.00
2023-03-05T11:41:33.826Z,44192.00
2023-03-05T11:42:33.915Z,44672.00
2023-03-05T11:43:34.074Z,46432.00
2023-03-05T11:44:34.138Z,47392.00
2023-03-05T11:45:34.270Z,47648.00
2023-03-05T11:46:34.447Z,48064.00
2023-03-05T11:47:34.528Z,48096.00
2023-03-05T11:48:34.671Z,49952.00
2023-03-05T11:49:35.345Z,50336.00
2023-03-05T11:50:34.886Z,47648.00
2023-03-05T11:51:35.021Z,41632.00
2023-03-05T11:52:35.128Z,39264.00
2023-03-05T11:53:35.279Z,31392.00
2023-03-05T11:54:35.400Z,26976.00
2023-03-05T11:55:35.530Z,21120.00
2023-03-05T11:56:35.665Z,24160.00
2023-03-05T11:57:35.784Z,31232.00
2023-03-05T11:58:35.922Z,32512.00
2023-03-05T11:59:36.019Z,35872.00
2023-03-05T12:00:36.133Z,37728.00
2023-03-05T12:01:36.282Z,31488.00
2023-03-05T12:02:36.423Z,29120.00
2023-03-05T12:03:36.591Z,21536.00
2023-03-05T12:04:36.614Z,31936.00
2023-03-05T12:05:36.745Z,33536.00
2023-03-05T12:06:36.865Z,36032.00
2023-03-05T12:07:36.994Z,36704.00
2023-03-05T12:08:37.153Z,33920.00
2023-03-05T12:09:37.266Z,32160.00
2023-03-05T12:10:37.415Z,30848.00
2023-03-05T12:11:37.541Z,22592.00
2023-03-05T12:12:37.676Z,37568.00
2023-03-05T12:13:38.846Z,22752.00
2023-03-05T12:14:37.878Z,33568.00
2023-03-05T12:15:38.021Z,32704.00
2023-03-05T12:16:38.164Z,31200.00
2023-03-05T12:17:38.243Z,31360.00
2023-03-05T12:18:38.364Z,29760.00
2023-03-05T12:19:38.477Z,29184.00
2023-03-05T12:20:38.691Z,28384.00
2023-03-05T12:21:38.802Z,26752.00
2023-03-05T12:22:39.687Z,26080.00
2023-03-05T12:23:39.536Z,24640.00
2023-03-05T12:24:39.579Z,24096.00
2023-03-05T12:25:39.542Z,23872.00
2023-03-05T12:26:39.503Z,24736.00
2023-03-05T12:27:39.506Z,25344.00
2023-03-05T12:28:39.667Z,25184.00
2023-03-05T12:29:40.117Z,27072.00
2023-03-05T12:30:39.817Z,26976.00
2023-03-05T12:31:39.955Z,26624.00
2023-03-05T12:32:40.102Z,26752.00
2023-03-05T12:33:40.224Z,27008.00
2023-03-05T12:34:40.573Z,25952.00
2023-03-05T12:35:41.212Z,25120.00
2023-03-05T12:36:40.878Z,27168.00
2023-03-05T12:37:40.768Z,29760.00
2023-03-05T12:38:40.881Z,31360.00
2023-03-05T12:39:41.711Z,35520.00
2023-03-05T12:40:41.446Z,37888.00
2023-03-05T12:41:41.801Z,38304.00
2023-03-05T12:42:41.418Z,35520.00
2023-03-05T12:43:41.568Z,37216.00
2023-03-05T12:44:41.644Z,37792.00
2023-03-05T12:45:41.818Z,37984.00
2023-03-05T12:46:41.923Z,38656.00
2023-03-05T12:47:42.057Z,31936.00
2023-03-05T12:48:42.292Z,39392.00
2023-03-05T12:49:42.259Z,38176.00
2023-03-05T12:50:42.380Z,39232.00
2023-03-05T12:51:42.498Z,40032.00
2023-03-05T12:52:42.721Z,40160.00
2023-03-05T12:53:42.748Z,38464.00
2023-03-05T12:54:42.850Z,36544.00
2023-03-05T12:55:42.991Z,35360.00
2023-03-05T12:56:43.137Z,35552.00
2023-03-05T12:57:43.271Z,37088.00
2023-03-05T12:58:43.390Z,39168.00
2023-03-05T12:59:43.489Z,40544.00
2023-03-05T13:00:43.692Z,28288.00
2023-03-05T13:01:43.748Z,39104.00
2023-03-05T13:02:43.897Z,36544.00
2023-03-05T13:03:44.039Z,40128.00
2023-03-05T13:04:44.106Z,42112.00
2023-03-05T13:05:44.264Z,36736.00
2023-03-05T13:06:44.314Z,30624.00
2023-03-05T13:07:44.487Z,20832.00
2023-03-05T13:08:44.582Z,18016.00
2023-03-05T13:09:44.698Z,30176.00
2023-03-05T13:10:44.800Z,28800.00
2023-03-05T13:11:45.029Z,21536.00
2023-03-05T13:12:45.122Z,17952.00
2023-03-05T13:13:45.262Z,15840.00
2023-03-05T13:14:45.391Z,16128.00
2023-03-05T13:15:45.562Z,16032.00
2023-03-05T13:16:45.826Z,16896.00
2023-03-05T13:17:45.919Z,26240.00
2023-03-05T13:18:46.052Z,28128.00
2023-03-05T13:19:46.172Z,30336.00
2023-03-05T13:20:46.283Z,34400.00
2023-03-05T13:21:46.467Z,37056.00
2023-03-05T13:22:46.671Z,40960.00
2023-03-05T13:23:46.733Z,39968.00
2023-03-05T13:24:46.813Z,36864.00
2023-03-05T13:25:47.005Z,38016.00
2023-03-05T13:26:47.147Z,37504.00
2023-03-05T13:27:47.227Z,37632.00
2023-03-05T13:28:47.371Z,36736.00
2023-03-05T13:29:47.508Z,40288.00
2023-03-05T13:30:47.682Z,41024.00
2023-03-05T13:31:47.949Z,43936.00
2023-03-05T13:32:47.939Z,40704.00
2023-03-05T13:33:48.116Z,40192.00
2023-03-05T13:34:48.301Z,41440.00
